Time;durP1;ratioP1;P1;durP2;ratioP2;P2;SDS_P1;SDS_P2;PMS_P1;PMS_P2;Temp;Humidity;BMP_temperature;BMP_pressure;BME280_temperature;BME280_humidity;BME280_pressure;Samples;Min_cycle;Max_cycle;Signal;HPM_P1;HPM_P2
2022/12/05 00:02:52;;;;;;;;;;;;;;;8.97;57.91;101096.69;5328980;32;34707;-69
2022/12/05 00:05:54;;;;;;;;;;;;;;;9.07;57.28;101098.19;5346590;32;35473;-68
2022/12/05 00:08:56;;;;;;;;;;;;;;;9.04;57.47;101093.91;5332943;32;35562;-69
2022/12/05 00:11:58;;;;;;;;;;;;;;;9.03;57.49;101100.03;5359221;32;34793;-69
2022/12/05 00:15:00;;;;;;;;;;;;;;;8.79;57.70;101103.16;5324809;32;36005;-69
2022/12/05 00:18:02;;;;;;;;;;;;;;;8.86;57.83;101094.28;5351079;32;34799;-73
2022/12/05 00:21:04;;;;;;;;;;;;;;;9.02;57.25;101102.69;5333729;32;34414;-70
2022/12/05 00:24:07;;;;;;;;;;;;;;;9.05;57.17;101094.75;5327796;32;34646;-74
2022/12/05 00:27:09;;;;;;;;;;;;;;;8.49;59.14;101087.16;5347446;32;46260;-72
2022/12/05 00:30:11;;;;;;;;;;;;;;;8.93;57.67;101088.88;5329089;32;35287;-74
2022/12/05 00:33:13;;;;;;;;;;;;;;;9.03;57.37;101097.41;5342089;32;34829;-70
2022/12/05 00:36:16;;;;;;;;;;;;;;;8.64;59.06;101094.72;5325390;32;34888;-69
2022/12/05 00:39:17;;;;;;;;;;;;;;;8.72;58.01;101085.84;5342399;32;34992;-72
2022/12/05 00:42:19;;;;;;;;;;;;;;;8.64;58.68;101096.47;5341130;32;34982;-73
2022/12/05 00:45:21;;;;;;;;;;;;;;;8.67;58.82;101084.16;5328351;32;34294;-69
2022/12/05 00:48:23;;;;;;;;;;;;;;;8.63;59.19;101092.09;5343662;32;34912;-73
2022/12/05 00:51:27;;;;;;;;;;;;;;;8.80;58.48;101091.78;5344552;32;34313;-68
2022/12/05 00:54:29;;;;;;;;;;;;;;;8.38;59.51;101094.37;5345710;32;34863;-72
2022/12/05 00:57:31;;;;;;;;;;;;;;;8.25;60.05;101098.06;5328022;32;35699;-73
2022/12/05 01:00:32;;;;;;;;;;;;;;;8.45;59.52;101093.34;5342563;32;35062;-74
2022/12/05 01:03:34;;;;;;;;;;;;;;;8.39;59.55;101093.47;5324095;32;34302;-73
2022/12/05 01:06:36;;;;;;;;;;;;;;;8.39;59.59;101093.47;5319574;32;35571;-69
2022/12/05 01:09:38;;;;;;;;;;;;;;;8.54;59.11;101077.44;5349067;32;44647;-72
2022/12/05 01:12:40;;;;;;;;;;;;;;;8.58;59.05;101079.12;5336571;32;34377;-68
2022/12/05 01:15:42;;;;;;;;;;;;;;;8.40;60.31;101084.72;5348972;32;36947;-72
2022/12/05 01:18:44;;;;;;;;;;;;;;;8.56;60.43;101085.28;5321119;32;34126;-74
2022/12/05 01:21:49;;;;;;;;;;;;;;;8.83;59.49;101068.16;5348239;32;34729;-70
2022/12/05 01:24:51;;;;;;;;;;;;;;;9.15;58.62;101075.31;5301072;32;35652;-73
2022/12/05 01:27:52;;;;;;;;;;;;;;;8.86;59.26;101078.56;5319856;32;34745;-68
2022/12/05 01:30:54;;;;;;;;;;;;;;;8.78;59.51;101068.22;5360491;32;36002;-70
2022/12/05 01:33:57;;;;;;;;;;;;;;;8.84;59.47;101069.88;5336611;32;34323;-72
2022/12/05 01:36:59;;;;;;;;;;;;;;;8.67;60.46;101068.44;5353176;32;34838;-68
2022/12/05 01:40:01;;;;;;;;;;;;;;;8.60;60.72;101069.47;5320450;32;34914;-74
2022/12/05 01:43:03;;;;;;;;;;;;;;;8.68;59.98;101064.06;5339069;32;35328;-73
2022/12/05 01:46:04;;;;;;;;;;;;;;;8.18;62.02;101070.25;5318492;32;34313;-69
2022/12/05 01:49:07;;;;;;;;;;;;;;;8.36;61.81;101072.56;5333251;32;35802;-73
2022/12/05 01:52:11;;;;;;;;;;;;;;;8.57;61.07;101068.69;5359815;32;46417;-73
2022/12/05 01:55:13;;;;;;;;;;;;;;;8.26;61.99;101063.13;5321114;32;34710;-68
2022/12/05 01:58:15;;;;;;;;;;;;;;;8.54;61.56;101066.97;5351575;32;34917;-68
2022/12/05 02:01:17;;;;;;;;;;;;;;;8.68;61.41;101069.31;5335485;32;35620;-69
2022/12/05 02:04:19;;;;;;;;;;;;;;;8.68;60.94;101070.16;5348175;32;35152;-73
2022/12/05 02:07:21;;;;;;;;;;;;;;;8.44;61.96;101065.44;5330085;32;34809;-68
2022/12/05 02:10:23;;;;;;;;;;;;;;;8.00;63.91;101076.69;5335050;32;36264;-72
2022/12/05 02:13:31;;;;;;;;;;;;;;;8.47;63.04;101070.59;5354719;32;34968;-73
2022/12/05 02:16:33;;;;;;;;;;;;;;;8.54;62.63;101066.97;5320048;32;34650;-69
2022/12/05 02:19:58;;;;;;;;;;;;;;;8.88;61.49;101061.03;5347297;32;35093;-73
2022/12/05 02:23:03;;;;;;;;;;;;;;;8.58;61.61;101062.53;5307130;32;34983;-68
2022/12/05 02:26:11;;;;;;;;;;;;;;;8.26;62.02;101071.84;5322499;32;36888;-73
2022/12/05 02:29:16;;;;;;;;;;;;;;;8.73;61.85;101071.84;5347104;32;44656;-69
2022/12/05 02:32:25;;;;;;;;;;;;;;;8.65;61.67;101080.72;5323930;32;34870;-73
2022/12/05 02:35:38;;;;;;;;;;;;;;;8.13;63.36;101092.16;5363663;32;34386;-70
2022/12/05 02:39:01;;;;;;;;;;;;;;;8.58;62.09;101086.97;5333721;32;45466;-74
2022/12/05 02:42:04;;;;;;;;;;;;;;;8.28;63.37;101093.63;5321491;32;34813;-69
2022/12/05 02:45:09;;;;;;;;;;;;;;;8.54;62.35;101082.69;5349990;32;34979;-69
2022/12/05 02:48:11;;;;;;;;;;;;;;;8.38;62.60;101073.41;5334622;32;44666;-73
2022/12/05 02:51:14;;;;;;;;;;;;;;;8.03;64.14;101082.72;5341053;32;33999;-73
2022/12/05 02:54:17;;;;;;;;;;;;;;;8.20;64.30;101086.81;5327553;32;34818;-69
2022/12/05 02:57:19;;;;;;;;;;;;;;;8.37;62.82;101079.53;5339918;32;35446;-73
2022/12/05 03:00:21;;;;;;;;;;;;;;;8.27;63.30;101088.44;5324232;32;36160;-68
2022/12/05 03:03:23;;;;;;;;;;;;;;;8.35;63.30;101083.91;5327856;32;35307;-69
2022/12/05 03:06:35;;;;;;;;;;;;;;;8.24;63.63;101091.09;5340613;32;35434;-69
2022/12/05 03:09:45;;;;;;;;;;;;;;;8.33;63.64;101080.47;5332421;32;45510;-70
2022/12/05 03:12:53;;;;;;;;;;;;;;;8.48;63.03;101097.66;5352401;32;34726;-69
2022/12/05 03:15:56;;;;;;;;;;;;;;;8.38;63.45;101099.59;5316734;32;34420;-69
2022/12/05 03:18:59;;;;;;;;;;;;;;;8.26;63.83;101092.81;5339870;32;34361;-73
2022/12/05 03:22:02;;;;;;;;;;;;;;;8.47;63.23;101090.69;5339462;32;34815;-69
2022/12/05 03:25:04;;;;;;;;;;;;;;;8.34;63.78;101100.50;5313284;32;34318;-73
2022/12/05 03:28:06;;;;;;;;;;;;;;;8.09;64.45;101080.00;5337226;32;34679;-73
2022/12/05 03:31:08;;;;;;;;;;;;;;;8.63;63.12;101090.38;5342350;32;45094;-68
2022/12/05 03:34:13;;;;;;;;;;;;;;;8.53;63.53;101088.81;5346930;32;34972;-74
2022/12/05 03:37:34;;;;;;;;;;;;;;;8.76;62.54;101091.00;5320776;32;34920;-73
2022/12/05 03:40:55;;;;;;;;;;;;;;;8.63;62.92;101092.09;5339894;32;34706;-68
2022/12/05 03:43:58;;;;;;;;;;;;;;;8.77;62.39;101089.25;5351525;32;35097;-68
2022/12/05 03:47:02;;;;;;;;;;;;;;;8.49;63.51;101094.13;5318225;32;35602;-73
2022/12/05 03:50:06;;;;;;;;;;;;;;;8.22;64.37;101096.34;5349739;32;35916;-68
2022/12/05 03:53:14;;;;;;;;;;;;;;;8.12;64.89;101098.28;5338608;32;43004;-72
2022/12/05 03:56:26;;;;;;;;;;;;;;;8.50;63.91;101091.53;5331393;32;35436;-68
2022/12/05 03:59:39;;;;;;;;;;;;;;;8.22;64.92;101092.88;5349629;32;34834;-69
2022/12/05 04:02:46;;;;;;;;;;;;;;;8.07;64.96;101084.41;5324867;32;44624;-69
2022/12/05 04:05:54;;;;;;;;;;;;;;;8.18;65.19;101094.72;5344658;32;34893;-69
2022/12/05 04:09:01;;;;;;;;;;;;;;;8.84;63.01;101081.22;5342051;32;35617;-68
2022/12/05 04:12:04;;;;;;;;;;;;;;;8.98;62.24;101082.69;5346807;32;35007;-69
2022/12/05 04:15:10;;;;;;;;;;;;;;;8.62;63.64;101086.00;5337969;32;35374;-69
2022/12/05 04:18:12;;;;;;;;;;;;;;;8.53;63.63;101088.81;5345171;32;47991;-68
2022/12/05 04:28:13;;;;;;;;;;;;;;;9.04;62.06;101088.66;5340949;32;35421;-68
2022/12/05 04:31:23;;;;;;;;;;;;;;;8.71;63.07;101089.38;5342682;32;35197;-75
2022/12/05 04:34:27;;;;;;;;;;;;;;;8.87;62.29;101075.88;5334778;32;35237;-74
2022/12/05 04:37:29;;;;;;;;;;;;;;;8.38;64.12;101087.38;5342869;32;35342;-68
2022/12/05 04:40:36;;;;;;;;;;;;;;;8.61;63.13;101086.91;5334823;32;35693;-73
2022/12/05 04:43:38;;;;;;;;;;;;;;;8.81;63.11;101090.87;5341340;32;44803;-69
2022/12/05 04:46:41;;;;;;;;;;;;;;;7.99;65.69;101088.06;5334368;32;34519;-73
2022/12/05 04:49:43;;;;;;;;;;;;;;;8.14;65.94;101088.66;5309722;32;35408;-68
2022/12/05 04:52:52;;;;;;;;;;;;;;;7.85;65.74;101075.19;5341596;32;34966;-72
2022/12/05 04:55:55;;;;;;;;;;;;;;;8.38;64.91;101074.28;5326295;32;34863;-71
2022/12/05 04:58:56;;;;;;;;;;;;;;;8.71;63.70;101078.88;5340685;32;34929;-68
2022/12/05 05:01:59;;;;;;;;;;;;;;;8.61;64.16;101067.69;5335872;32;34719;-68
2022/12/05 05:05:02;;;;;;;;;;;;;;;8.49;64.28;101066.19;5341927;32;35522;-73
2022/12/05 05:08:04;;;;;;;;;;;;;;;8.01;65.73;101070.56;5338458;32;34808;-69
2022/12/05 05:11:06;;;;;;;;;;;;;;;8.41;65.43;101070.72;5324303;32;34686;-69
2022/12/05 05:14:08;;;;;;;;;;;;;;;8.58;64.67;101076.50;5348855;32;48305;-73
2022/12/05 05:17:10;;;;;;;;;;;;;;;7.65;68.98;101070.28;5336809;32;34957;-73
2022/12/05 05:20:24;;;;;;;;;;;;;;;8.38;65.64;101078.66;5345113;32;35528;-73
2022/12/05 05:23:25;;;;;;;;;;;;;;;8.58;64.70;101084.37;5326961;32;35362;-74
2022/12/05 05:26:28;;;;;;;;;;;;;;;8.50;65.00;101077.53;5321095;32;35342;-73
2022/12/05 05:29:30;;;;;;;;;;;;;;;8.39;65.57;101078.63;5348394;32;34911;-68
2022/12/05 05:32:32;;;;;;;;;;;;;;;8.57;64.62;101085.25;5324073;32;34857;-69
2022/12/05 05:35:37;;;;;;;;;;;;;;;8.13;66.87;101107.87;5353213;32;35370;-73
2022/12/05 05:38:40;;;;;;;;;;;;;;;8.58;64.73;101097.47;5332031;32;45408;-73
2022/12/05 05:41:42;;;;;;;;;;;;;;;8.75;63.89;101080.53;5335428;32;34435;-73
2022/12/05 05:44:44;;;;;;;;;;;;;;;8.60;64.53;101092.19;5331511;32;34595;-70
2022/12/05 05:47:49;;;;;;;;;;;;;;;8.19;66.25;101091.19;5328262;32;34332;-69
2022/12/05 05:50:50;;;;;;;;;;;;;;;8.61;64.64;101099.16;5346004;32;34855;-72
2022/12/05 05:53:52;;;;;;;;;;;;;;;8.07;66.53;101102.75;5329372;32;34773;-72
2022/12/05 05:56:54;;;;;;;;;;;;;;;8.17;66.43;101097.31;5342616;32;35590;-68
2022/12/05 05:59:56;;;;;;;;;;;;;;;8.54;64.63;101106.25;5331291;32;35412;-70
2022/12/05 06:02:58;;;;;;;;;;;;;;;8.08;66.79;101104.47;5350948;32;35331;-75
2022/12/05 06:06:02;;;;;;;;;;;;;;;8.46;65.38;101105.56;5327224;32;34871;-70
2022/12/05 06:09:05;;;;;;;;;;;;;;;8.52;65.29;101099.34;5321586;32;34234;-67
2022/12/05 06:12:07;;;;;;;;;;;;;;;8.29;66.22;101104.97;5339149;32;34352;-71
2022/12/05 06:15:09;;;;;;;;;;;;;;;8.48;65.95;101105.53;5326536;32;44564;-65
2022/12/05 06:18:11;;;;;;;;;;;;;;;8.76;64.88;101113.69;5343772;32;34303;-66
2022/12/05 06:21:12;;;;;;;;;;;;;;;8.88;64.13;101114.31;5325315;32;35519;-74
2022/12/05 06:24:17;;;;;;;;;;;;;;;8.73;64.66;101125.13;5329759;32;34564;-73
2022/12/05 06:27:19;;;;;;;;;;;;;;;8.57;64.97;101121.09;5315100;32;35350;-74
2022/12/05 06:30:21;;;;;;;;;;;;;;;8.64;64.79;101118.31;5317132;32;34354;-76
2022/12/05 06:33:23;;;;;;;;;;;;;;;8.97;63.83;101120.28;5335198;32;35580;-79
2022/12/05 06:36:26;;;;;;;;;;;;;;;8.85;64.04;101119.62;5323368;32;34377;-75
2022/12/05 06:39:28;;;;;;;;;;;;;;;8.59;64.94;101122.78;5344748;32;34261;-77
2022/12/05 06:42:30;;;;;;;;;;;;;;;8.44;65.87;101127.41;5318408;32;34320;-80
2022/12/05 06:45:32;;;;;;;;;;;;;;;8.81;64.20;101124.97;5326476;32;34763;-73
2022/12/05 06:48:34;;;;;;;;;;;;;;;8.63;65.06;101134.94;5339202;32;35519;-76
2022/12/05 06:51:36;;;;;;;;;;;;;;;8.89;64.72;101120.44;5322324;32;34368;-71
2022/12/05 06:54:38;;;;;;;;;;;;;;;8.81;64.20;101127.56;5340841;32;44279;-76
2022/12/05 06:57:40;;;;;;;;;;;;;;;8.56;65.37;101141.16;5325186;32;36794;-80
2022/12/05 07:04:03;;;;;;;;;;;;;;;8.75;64.04;101131.19;5330773;32;34691;-72
2022/12/05 07:07:05;;;;;;;;;;;;;;;8.97;63.89;101136.00;5328305;32;34801;-81
2022/12/05 07:10:07;;;;;;;;;;;;;;;8.57;65.15;101148.16;5347065;32;42856;-76
2022/12/05 07:13:09;;;;;;;;;;;;;;;8.97;63.82;101146.50;5316135;32;35449;-67
2022/12/05 07:16:16;;;;;;;;;;;;;;;8.71;64.78;101154.88;5341033;32;35570;-66
2022/12/05 07:19:18;;;;;;;;;;;;;;;8.31;64.94;101158.19;5319005;32;36241;-66
2022/12/05 07:22:20;;;;;;;;;;;;;;;8.48;65.64;101165.78;5332538;32;35595;-67
2022/12/05 07:25:23;;;;;;;;;;;;;;;9.10;63.89;101142.72;5314642;32;34335;-64
2022/12/05 07:28:25;;;;;;;;;;;;;;;9.15;63.52;101151.38;5324995;32;34616;-75
2022/12/05 07:31:28;;;;;;;;;;;;;;;9.16;63.24;101155.72;5330111;32;34972;-77
2022/12/05 07:34:30;;;;;;;;;;;;;;;9.07;63.72;101150.66;5328203;32;34843;-78
2022/12/05 07:37:32;;;;;;;;;;;;;;;9.13;63.54;101156.63;5335214;32;35148;-67
2022/12/05 07:40:36;;;;;;;;;;;;;;;9.03;63.48;101159.50;5334911;32;35271;-75
2022/12/05 07:43:38;;;;;;;;;;;;;;;9.32;62.75;101171.97;5331623;32;45491;-68
2022/12/05 07:46:40;;;;;;;;;;;;;;;9.33;62.11;101177.19;5333432;32;34431;-68
2022/12/05 07:49:41;;;;;;;;;;;;;;;9.30;62.43;101163.28;5326131;32;34162;-79
2022/12/05 07:52:43;;;;;;;;;;;;;;;9.36;62.56;101181.53;5338297;32;34289;-66
2022/12/05 07:55:45;;;;;;;;;;;;;;;9.10;63.69;101179.44;5323991;32;34180;-66
2022/12/05 07:58:48;;;;;;;;;;;;;;;9.26;62.32;101182.59;5331167;32;34265;-74
2022/12/05 08:01:50;;;;;;;;;;;;;;;9.22;62.75;101174.81;5326166;32;36006;-74
2022/12/05 08:04:52;;;;;;;;;;;;;;;9.02;63.38;101176.13;5333061;32;34227;-68
2022/12/05 08:07:54;;;;;;;;;;;;;;;9.48;62.17;101176.88;5319850;32;36298;-67
2022/12/05 08:11:01;;;;;;;;;;;;;;;9.57;61.68;101175.78;5326380;32;34630;-74
2022/12/05 08:14:03;;;;;;;;;;;;;;;9.42;61.80;101184.88;5335152;32;34182;-70
2022/12/05 08:17:05;;;;;;;;;;;;;;;9.40;62.12;101183.16;5311328;32;34689;-68
2022/12/05 08:20:08;;;;;;;;;;;;;;;9.52;61.74;101182.91;5331960;32;46241;-74
2022/12/05 08:23:09;;;;;;;;;;;;;;;9.39;62.17;101189.31;5330802;32;34598;-76
2022/12/05 08:26:23;;;;;;;;;;;;;;;8.92;63.51;101191.16;5325501;32;35564;-74
2022/12/05 08:29:25;;;;;;;;;;;;;;;8.86;64.29;101207.00;5341402;32;35969;-74
2022/12/05 08:32:27;;;;;;;;;;;;;;;9.31;62.13;101186.84;5326187;32;34302;-73
2022/12/05 08:35:29;;;;;;;;;;;;;;;8.98;63.27;101193.66;5342569;32;35475;-71
2022/12/05 08:38:31;;;;;;;;;;;;;;;8.87;63.77;101191.22;5319807;32;34698;-70
2022/12/05 08:41:33;;;;;;;;;;;;;;;8.98;63.65;101198.91;5319344;32;33925;-77
2022/12/05 08:44:35;;;;;;;;;;;;;;;9.11;63.13;101194.28;5320741;32;34787;-73
2022/12/05 08:47:37;;;;;;;;;;;;;;;9.21;62.85;101191.44;5329836;32;36100;-68
2022/12/05 08:50:39;;;;;;;;;;;;;;;9.40;62.75;101191.03;5338342;32;45160;-77
2022/12/05 08:53:40;;;;;;;;;;;;;;;9.53;62.15;101184.62;5314333;32;34229;-81
2022/12/05 08:56:45;;;;;;;;;;;;;;;9.50;62.47;101185.56;5330410;32;34997;-80
2022/12/05 08:59:47;;;;;;;;;;;;;;;9.84;61.19;101189.19;5324316;32;35388;-74
2022/12/05 09:02:50;;;;;;;;;;;;;;;9.77;60.66;101185.84;5334926;32;34673;-68
2022/12/05 09:05:52;;;;;;;;;;;;;;;9.65;60.80;101180.88;5323869;32;35668;-75
2022/12/05 09:08:56;;;;;;;;;;;;;;;9.35;61.54;101195.53;5322886;32;34485;-66
2022/12/05 09:11:59;;;;;;;;;;;;;;;9.77;61.07;101196.34;5335436;32;34167;-87
2022/12/05 09:15:01;;;;;;;;;;;;;;;9.86;60.67;101190.91;5279929;32;943469;-78
2022/12/05 09:18:03;;;;;;;;;;;;;;;9.48;62.37;101194.38;5326126;32;33946;-67
2022/12/05 09:21:05;;;;;;;;;;;;;;;9.83;60.42;101179.59;5319545;32;34145;-66
2022/12/05 09:24:08;;;;;;;;;;;;;;;9.94;60.47;101174.94;5313668;32;43642;-79
2022/12/05 09:27:10;;;;;;;;;;;;;;;9.92;60.40;101179.37;5323993;32;34258;-66
2022/12/05 09:30:13;;;;;;;;;;;;;;;9.66;60.79;101178.22;5320765;32;34402;-66
2022/12/05 09:33:14;;;;;;;;;;;;;;;10.22;59.53;101173.38;5337632;32;34060;-84
2022/12/05 09:36:18;;;;;;;;;;;;;;;9.99;60.16;101180.97;5331217;32;36920;-84
2022/12/05 09:39:19;;;;;;;;;;;;;;;10.09;59.91;101165.84;5350215;32;35462;-67
2022/12/05 09:42:22;;;;;;;;;;;;;;;10.35;58.86;101176.56;5321960;32;34447;-82
2022/12/05 09:45:34;;;;;;;;;;;;;;;10.03;59.97;101174.72;5337963;32;34318;-67
2022/12/05 09:48:38;;;;;;;;;;;;;;;10.33;59.20;101167.03;5331683;32;35161;-68
2022/12/05 09:51:42;;;;;;;;;;;;;;;9.37;62.06;101165.75;5328110;32;45093;-77
2022/12/05 09:54:43;;;;;;;;;;;;;;;10.66;57.89;101154.75;5343044;32;35398;-65
2022/12/05 09:57:53;;;;;;;;;;;;;;;10.23;59.16;101161.97;5324355;32;35626;-74
2022/12/05 10:01:03;;;;;;;;;;;;;;;10.55;58.26;101147.12;5339787;32;33926;-67
2022/12/05 10:04:11;;;;;;;;;;;;;;;10.45;58.07;101150.94;5314496;32;35294;-66
2022/12/05 10:07:13;;;;;;;;;;;;;;;10.15;59.40;101152.53;5321987;32;44807;-66
2022/12/05 10:10:30;;;;;;;;;;;;;;;9.95;60.31;101160.91;5346177;32;34234;-76
2022/12/05 10:13:38;;;;;;;;;;;;;;;10.02;59.92;101158.09;5336135;32;35416;-65
2022/12/05 10:16:47;;;;;;;;;;;;;;;10.11;59.42;101143.00;5342976;32;44354;-66
2022/12/05 10:19:49;;;;;;;;;;;;;;;10.42;58.17;101143.13;5330666;32;34185;-66
2022/12/05 10:23:10;;;;;;;;;;;;;;;10.45;58.16;101127.28;5337086;32;37882;-66
2022/12/05 10:26:36;;;;;;;;;;;;;;;10.29;59.06;101138.19;5316818;32;35305;-67
2022/12/05 10:29:49;;;;;;;;;;;;;;;9.54;61.48;101131.25;5325033;32;44449;-68
2022/12/05 10:32:53;;;;;;;;;;;;;;;10.06;60.59;101123.91;5337870;32;35851;-67
2022/12/05 10:35:55;;;;;;;;;;;;;;;10.39;59.08;101123.06;5334260;32;36164;-68
2022/12/05 10:38:57;;;;;;;;;;;;;;;10.09;59.74;101116.78;5328565;32;36050;-78
2022/12/05 10:41:59;;;;;;;;;;;;;;;10.32;59.30;101112.75;5322026;32;34275;-78
2022/12/05 10:45:02;;;;;;;;;;;;;;;10.08;60.49;101115.06;5334956;32;34380;-78
2022/12/05 10:48:03;;;;;;;;;;;;;;;11.06;57.21;101105.38;5350954;32;34237;-63
2022/12/05 10:51:06;;;;;;;;;;;;;;;11.14;56.95;101097.25;5330163;32;35495;-66
2022/12/05 10:54:12;;;;;;;;;;;;;;;10.61;58.40;101096.19;5341721;32;46339;-67
2022/12/05 10:57:21;;;;;;;;;;;;;;;10.71;57.42;101092.38;5325278;32;35643;-72
2022/12/05 11:00:24;;;;;;;;;;;;;;;9.32;61.87;101106.41;5326122;32;36326;-69
2022/12/05 11:03:28;;;;;;;;;;;;;;;10.16;60.55;101102.59;5346801;32;36428;-71
2022/12/05 11:06:30;;;;;;;;;;;;;;;10.32;59.67;101102.25;5331196;32;34379;-67
2022/12/05 11:09:34;;;;;;;;;;;;;;;10.83;57.83;101095.53;5338115;32;35560;-65
2022/12/05 11:12:37;;;;;;;;;;;;;;;9.03;62.03;101093.94;5327603;32;33401;-85
2022/12/05 11:15:43;;;;;;;;;;;;;;;9.71;61.58;101097.59;5336018;32;44591;-69
2022/12/05 11:18:48;;;;;;;;;;;;;;;9.40;62.37;101086.97;5323001;32;34499;-71
2022/12/05 11:21:50;;;;;;;;;;;;;;;8.90;64.29;101081.09;5319883;32;35280;-74
2022/12/05 11:24:52;;;;;;;;;;;;;;;9.81;61.30;101079.00;5324722;32;34201;-76
2022/12/05 11:27:58;;;;;;;;;;;;;;;9.87;61.86;101081.47;5319596;32;34331;-72
2022/12/05 11:31:11;;;;;;;;;;;;;;;9.96;61.05;101084.72;5348780;32;35493;-66
2022/12/05 11:34:15;;;;;;;;;;;;;;;10.78;58.04;101073.75;5317682;32;43713;-69
2022/12/05 11:37:19;;;;;;;;;;;;;;;9.48;62.15;101090.28;5329284;32;35608;-70
2022/12/05 11:40:27;;;;;;;;;;;;;;;10.26;59.52;101077.84;5336885;32;34809;-68
2022/12/05 11:43:38;;;;;;;;;;;;;;;10.01;60.81;101085.47;5332325;32;34362;-75
2022/12/05 11:46:45;;;;;;;;;;;;;;;9.75;60.69;101080.00;5335111;32;44638;-74
2022/12/05 11:50:02;;;;;;;;;;;;;;;10.03;60.65;101072.28;5318754;32;35512;-67
2022/12/05 11:53:04;;;;;;;;;;;;;;;9.14;63.73;101063.94;5337743;32;35225;-78
2022/12/05 11:56:25;;;;;;;;;;;;;;;9.62;62.20;101053.22;5333712;32;34360;-71
2022/12/05 11:59:39;;;;;;;;;;;;;;;9.31;63.48;101052.22;5316773;32;35660;-83
2022/12/05 12:02:42;;;;;;;;;;;;;;;10.44;59.41;101050.22;5333606;32;44522;-68
2022/12/05 12:05:44;;;;;;;;;;;;;;;9.65;62.34;101058.38;5318520;32;34508;-83
2022/12/05 12:08:51;;;;;;;;;;;;;;;9.15;64.22;101059.56;5325764;32;34324;-80
2022/12/05 12:11:52;;;;;;;;;;;;;;;9.55;62.53;101048.16;5336190;32;34411;-83
2022/12/05 12:15:10;;;;;;;;;;;;;;;10.28;60.10;101034.00;5318376;32;34254;-85
2022/12/05 12:18:30;;;;;;;;;;;;;;;9.67;61.87;101035.59;5333940;32;44497;-72
2022/12/05 12:21:41;;;;;;;;;;;;;;;9.79;61.78;101047.53;5327389;32;35524;-86
2022/12/05 12:25:05;;;;;;;;;;;;;;;10.49;59.67;101035.16;5316910;32;44528;-78
2022/12/05 12:28:13;;;;;;;;;;;;;;;10.75;58.41;101037.03;5340809;32;36654;-78
2022/12/05 12:31:36;;;;;;;;;;;;;;;10.64;58.63;101023.34;5328762;32;34398;-88
2022/12/05 12:34:48;;;;;;;;;;;;;;;10.40;59.51;101017.03;5341101;32;44062;-83
2022/12/05 12:37:55;;;;;;;;;;;;;;;9.90;61.39;101023.63;5318645;32;34108;-74
2022/12/05 12:41:04;;;;;;;;;;;;;;;10.61;60.04;101012.06;5318308;32;31405;-76
2022/12/05 12:44:06;;;;;;;;;;;;;;;8.95;64.21;101020.66;5325263;32;35385;-82
2022/12/05 12:47:17;;;;;;;;;;;;;;;10.17;60.99;101007.13;5321758;32;44741;-81
2022/12/05 12:50:23;;;;;;;;;;;;;;;10.70;59.37;101010.03;5335441;32;34368;-77
2022/12/05 12:53:44;;;;;;;;;;;;;;;10.27;59.85;101019.13;5330475;32;36101;-73
2022/12/05 12:56:55;;;;;;;;;;;;;;;10.46;60.09;101023.87;5328387;32;44595;-74
2022/12/05 13:00:16;;;;;;;;;;;;;;;9.84;61.92;101021.16;5331086;32;34916;-84
2022/12/05 13:03:44;;;;;;;;;;;;;;;9.88;62.87;101017.56;5328469;32;34207;-73
2022/12/05 13:06:58;;;;;;;;;;;;;;;10.27;61.28;101008.62;5337729;32;35516;-73
2022/12/05 13:10:15;;;;;;;;;;;;;;;9.63;62.77;101015.56;5337387;32;35886;-76
2022/12/05 13:13:22;;;;;;;;;;;;;;;10.37;60.74;100995.22;5327455;32;44768;-77
2022/12/05 13:16:26;;;;;;;;;;;;;;;10.48;60.12;100996.63;5333467;32;34273;-81
2022/12/05 13:19:36;;;;;;;;;;;;;;;9.50;62.99;101014.13;5321201;32;35620;-75
2022/12/05 13:22:38;;;;;;;;;;;;;;;9.91;63.10;101013.06;5331960;32;44488;-71
2022/12/05 13:25:40;;;;;;;;;;;;;;;9.23;65.45;101005.19;5303159;32;33347;-70
2022/12/05 13:28:54;;;;;;;;;;;;;;;9.07;65.68;101009.91;5318857;32;36102;-70
2022/12/05 13:31:56;;;;;;;;;;;;;;;9.49;64.26;101008.03;5341608;32;33769;-73
2022/12/05 13:35:00;;;;;;;;;;;;;;;9.08;66.20;101001.16;5325268;32;34672;-73
2022/12/05 13:45:05;;;;;;;;;;;;;;;9.89;63.66;100998.28;5323740;32;35579;-70
2022/12/05 13:48:17;;;;;;;;;;;;;;;9.02;65.35;101017.03;5341074;32;35349;-72
2022/12/05 13:51:25;;;;;;;;;;;;;;;10.22;62.43;101005.22;5330019;32;34248;-71
2022/12/05 13:54:27;;;;;;;;;;;;;;;10.49;61.54;101000.13;5328107;32;34159;-86
2022/12/05 13:57:38;;;;;;;;;;;;;;;9.83;63.85;101004.53;5322319;32;34813;-78
2022/12/05 14:00:40;;;;;;;;;;;;;;;9.65;64.12;101008.50;5326980;32;44392;-72
2022/12/05 14:03:54;;;;;;;;;;;;;;;9.96;63.00;101011.19;5327520;32;34339;-74
2022/12/05 14:06:57;;;;;;;;;;;;;;;9.69;64.12;101025.91;5330470;32;34932;-76
2022/12/05 14:09:59;;;;;;;;;;;;;;;10.12;63.13;101016.06;5329028;32;34998;-72
2022/12/05 14:13:25;;;;;;;;;;;;;;;10.72;61.07;101008.22;5326536;32;34166;-79
2022/12/05 14:16:30;;;;;;;;;;;;;;;10.18;62.47;101000.13;5326857;32;34243;-76
2022/12/05 14:19:52;;;;;;;;;;;;;;;10.00;63.32;100996.22;5334953;32;34371;-79
2022/12/05 14:23:13;;;;;;;;;;;;;;;9.12;65.67;101010.66;5313286;32;35155;-79
2022/12/05 14:26:34;;;;;;;;;;;;;;;9.70;64.94;100996.13;5315405;32;45854;-75
2022/12/05 14:29:39;;;;;;;;;;;;;;;9.22;65.25;101004.31;5323896;32;43894;-78
2022/12/05 14:32:43;;;;;;;;;;;;;;;9.26;65.76;100993.75;5323141;32;34407;-78
2022/12/05 14:35:47;;;;;;;;;;;;;;;9.83;64.42;100993.19;5328834;32;34736;-76
2022/12/05 14:38:49;;;;;;;;;;;;;;;10.45;62.17;101004.62;5334936;32;35104;-77
2022/12/05 14:41:55;;;;;;;;;;;;;;;10.38;62.38;100994.34;5333930;32;35620;-78
2022/12/05 14:44:57;;;;;;;;;;;;;;;9.92;63.47;100999.06;5329860;32;34257;-75
2022/12/05 14:48:00;;;;;;;;;;;;;;;9.81;63.92;100995.00;5328370;32;34639;-77
2022/12/05 14:51:22;;;;;;;;;;;;;;;10.00;63.25;100996.22;5330023;32;34763;-78
2022/12/05 14:54:24;;;;;;;;;;;;;;;9.93;64.08;100986.78;5309059;32;34458;-77
2022/12/05 14:57:26;;;;;;;;;;;;;;;9.72;64.98;100989.09;5353807;32;34288;-76
2022/12/05 15:00:28;;;;;;;;;;;;;;;9.51;65.37;100994.88;5313949;32;35591;-78
2022/12/05 15:03:31;;;;;;;;;;;;;;;9.36;66.16;100993.50;5334414;32;34489;-77
2022/12/05 15:06:34;;;;;;;;;;;;;;;9.42;66.49;100995.97;5332596;32;36361;-75
2022/12/05 15:09:44;;;;;;;;;;;;;;;9.84;63.95;100994.91;5325078;32;34318;-77
2022/12/05 15:13:02;;;;;;;;;;;;;;;9.75;64.67;100982.87;5326983;32;46732;-76
2022/12/05 15:16:22;;;;;;;;;;;;;;;10.04;63.64;100988.19;5324392;32;35671;-78
2022/12/05 15:19:28;;;;;;;;;;;;;;;10.32;62.67;100981.38;5325014;32;36674;-70
2022/12/05 15:22:34;;;;;;;;;;;;;;;10.69;61.16;100978.50;5323768;32;35713;-71
2022/12/05 15:25:36;;;;;;;;;;;;;;;10.27;62.14;100976.25;5307119;32;35011;-71
2022/12/05 15:28:38;;;;;;;;;;;;;;;9.26;66.57;100991.12;5345047;32;45175;-71
2022/12/05 15:31:44;;;;;;;;;;;;;;;9.62;65.70;100986.72;5333534;32;35721;-70
2022/12/05 15:35:04;;;;;;;;;;;;;;;9.13;67.36;100995.78;5342023;32;35429;-69
2022/12/05 15:38:25;;;;;;;;;;;;;;;9.92;64.75;100975.44;5326876;32;34523;-70
2022/12/05 15:41:28;;;;;;;;;;;;;;;10.25;63.09;100967.56;5323909;32;35037;-69
2022/12/05 15:44:30;;;;;;;;;;;;;;;9.42;66.40;100969.72;5337246;32;34460;-69
2022/12/05 15:47:42;;;;;;;;;;;;;;;9.91;65.23;100962.31;5331430;32;44712;-71
2022/12/05 15:50:50;;;;;;;;;;;;;;;10.24;63.95;100945.69;5333970;32;34498;-67
2022/12/05 15:53:54;;;;;;;;;;;;;;;10.66;62.13;100949.69;5331344;32;34355;-68
2022/12/05 15:56:59;;;;;;;;;;;;;;;10.41;63.31;100942.53;5332464;32;35942;-69
2022/12/05 16:00:03;;;;;;;;;;;;;;;9.64;65.56;100954.28;5331234;32;36101;-65
2022/12/05 16:03:08;;;;;;;;;;;;;;;9.86;65.44;100959.84;5323403;32;33654;-70
2022/12/05 16:06:16;;;;;;;;;;;;;;;10.15;63.80;100951.16;5337798;32;44577;-68
2022/12/05 16:09:21;;;;;;;;;;;;;;;9.97;64.67;100946.41;5322260;32;35557;-68
2022/12/05 16:12:29;;;;;;;;;;;;;;;10.01;63.88;100948.06;5325258;32;34710;-69
2022/12/05 16:15:31;;;;;;;;;;;;;;;10.46;62.94;100955.56;5329987;32;34481;-67
2022/12/05 16:18:33;;;;;;;;;;;;;;;10.25;63.11;100965.78;5325142;32;35290;-67
2022/12/05 16:21:37;;;;;;;;;;;;;;;10.78;61.98;100965.09;5339902;32;33295;-69